Terminal Aerodrome Forecast
Issued by NWS

Home | Current Version | Previous Version | Text Only | Print | Product List | Glossary On
Versions: 1 2 3 4 5 6 7 8 9 10 11 12 13 14
513
FTUS44 KMAF 290520
TAFCNM
TAF
KCNM 290520Z 2906/3006 32004KT P6SM SCT200
     FM291200 07009KT P6SM SCT250
     FM300100 13005KT P6SM BKN200=

USA.gov is the U.S. government's official web portal to all federal, state and local government web resources and services.